Big Piney, WY

11:26 AM MST on January 20, 2017 (GMT -0700)
Big Piney-Marbleton | | Change Station
Active Advisory: Special Statement Active Notice: Public Information Statement

Elev 6991 ft 42.58 °N, 110.11 °W | Updated 33 minutes ago

Clear
Clear
3 °F
Feels Like -8 °F
N
6
Wind Variable Wind from ENE

Today
High -- | Low -- °F
--% Chance of Precip.
Yesterday
High -- | Low -- °F
Precip. -- in
Pressure 29.75 in
Visibility 10.0 miles
Clouds Clear
Windchill -8 °F
Dew Point -1 °F
Humidity 84%
Rainfall 0.00 in
Snow Depth Not available.
7:44 AM 5:19 PM
Last Quarter, 42% visible
METAR KBPI 201753Z AUTO 07005KT 10SM CLR M16/M18 A2954 RMK AO2 SLP072 T11611183 11156 21217 58005 $
Pressure 29.75 in
Visibility 10.0 miles
Clouds Clear
Windchill -8 °F
Dew Point -1 °F
Humidity 84%
Rainfall 0.00 in
Snow Depth Not available.
7:44 AM 5:19 PM
Last Quarter, 42% visible
METAR KBPI 201753Z AUTO 07005KT 10SM CLR M16/M18 A2954 RMK AO2 SLP072 T11611183 11156 21217 58005 $

Get Your Daily Forecast Email!

Thanks for signing up!

Be on the lookout for a verification email in your inbox.

You'll start receiving the daily forecast at 8 AM.

×

10-Day Weather Forecast

Almanac

Astronomy

Jan. 20, 2017 Rise Set
Actual Time
Civil Twilight
Nautical Twilight
Astronomical Twilight
Moon
Length of Visible Light
Length of Day
Tomorrow will be .
, % of the Moon is Illuminated

Today's Extremes

State Highs State Lows

Community

WunderPhotos

Upload Photos

1,962,540 photos uploaded!

WunderBlog® & News

Nearby

Air Quality

  Air Quality AQ Index Pollutant
Not available.

Snow Depth

Station Depth Elevation

Earthquake Activity

City Distance Mag. Time & Date
Minimum magnitude displayed is 2.5.

Coastal Water Temperatures

Place Temperature

Stations

Nearby Weather Stations

Station Location Temp. Windchill Dew Point Humidity Wind Precip. Elev Updated Type
                   

Watches & Warnings

Special Statement
Issued: 9:42 AM MST Jan. 20, 2017 – National Weather Service

Areas of fog, limiting visibility to one-half mile or less, will
continue across the area through 1 PM. Road surfaces may be slick
with black ice deposited by the fog, especially over bridges.

Use your headlights to remain visible to other drivers through the
morning.



942 am MST Fri Jan 20 2017

Areas of fog, limiting visibility to one-half mile or less, will
continue across the area through 1 PM. Road surfaces may be slick
with black ice deposited by the fog, especially over bridges.

Use your headlights to remain visible to other drivers through the
morning.



942 am MST Fri Jan 20 2017

Areas of fog, limiting visibility to one-half mile or less, will
continue across the area through 1 PM. Road surfaces may be slick
with black ice deposited by the fog, especially over bridges.

Use your headlights to remain visible to other drivers through the
morning.